Time;durP1;ratioP1;P1;durP2;ratioP2;P2;SDS_P1;SDS_P2;PMS_P1;PMS_P2;Temp;Humidity;BMP_temperature;BMP_pressure;BME280_temperature;BME280_humidity;BME280_pressure;Samples;Min_cycle;Max_cycle;Signal;HPM_P1;HPM_P2
2022/04/21 00:01:42;;;;;;;10.98;6.75;;;7.60;99.90;;;;;;5055206;28;20039;-74
2022/04/21 00:04:07;;;;;;;11.63;7.85;;;7.50;99.90;;;;;;5055007;28;20127;-77
2022/04/21 00:06:33;;;;;;;10.63;7.60;;;7.50;99.90;;;;;;5020878;28;20045;-75
2022/04/21 00:08:59;;;;;;;13.55;7.78;;;7.50;99.90;;;;;;5036845;28;20052;-75
2022/04/21 00:11:24;;;;;;;11.57;7.53;;;7.50;99.90;;;;;;5021428;28;20064;-74
2022/04/21 00:13:50;;;;;;;11.55;6.90;;;7.50;99.90;;;;;;5054907;28;20047;-74
2022/04/21 00:16:15;;;;;;;13.63;7.70;;;7.50;99.90;;;;;;5054897;28;20137;-75
2022/04/21 00:18:42;;;;;;;13.02;8.48;;;7.50;99.90;;;;;;5037425;28;20132;-74
2022/04/21 00:21:08;;;;;;;14.60;7.63;;;7.60;99.90;;;;;;5036849;28;20046;-75
2022/04/21 00:23:34;;;;;;;11.68;7.90;;;7.50;99.90;;;;;;5034802;28;20126;-74
2022/04/21 00:26:01;;;;;;;11.00;7.32;;;7.50;99.90;;;;;;5034332;28;20134;-75
2022/04/21 00:28:32;;;;;;;12.85;8.50;;;7.50;99.90;;;;;;5017359;28;20091;-74
2022/04/21 00:30:58;;;;;;;13.35;8.15;;;7.40;99.90;;;;;;5033274;28;20059;-74
2022/04/21 00:33:23;;;;;;;12.18;8.05;;;7.40;99.90;;;;;;5054662;28;20398;-75
2022/04/21 00:35:49;;;;;;;15.15;8.52;;;7.40;99.90;;;;;;5036306;28;20143;-74
2022/04/21 00:38:14;;;;;;;13.40;8.35;;;7.30;99.90;;;;;;5037016;28;20045;-74
2022/04/21 00:40:40;;;;;;;15.55;8.27;;;7.20;99.90;;;;;;5040883;28;20041;-75
2022/04/21 00:43:06;;;;;;;14.23;8.95;;;7.20;99.90;;;;;;5000669;28;20054;-74
2022/04/21 00:45:33;;;;;;;11.95;8.95;;;7.30;99.90;;;;;;5017701;28;20049;-75
2022/04/21 00:48:01;;;;;;;14.05;9.57;;;7.20;99.90;;;;;;5039106;28;20472;-77
2022/04/21 00:50:37;;;;;;;15.55;8.90;;;7.30;99.90;;;;;;5056747;28;20053;-75
2022/04/21 00:53:03;;;;;;;14.02;8.65;;;7.20;99.90;;;;;;5058445;28;20457;-74
2022/04/21 00:55:30;;;;;;;12.75;9.27;;;7.20;99.90;;;;;;5041014;28;20166;-74
2022/04/21 00:57:57;;;;;;;14.00;9.02;;;7.30;99.90;;;;;;5054505;28;20041;-74
2022/04/21 01:00:23;;;;;;;13.07;9.45;;;7.20;99.90;;;;;;5004728;28;20493;-76
2022/04/21 01:02:52;;;;;;;14.93;8.60;;;7.10;99.90;;;;;;5038718;28;20038;-75
2022/04/21 01:05:30;;;;;;;13.93;8.77;;;7.10;99.90;;;;;;5020639;28;20057;-75
2022/04/21 01:08:04;;;;;;;13.38;8.88;;;7.10;99.90;;;;;;5041721;28;20033;-74
2022/04/21 01:10:35;;;;;;;19.90;10.38;;;7.00;99.90;;;;;;5058369;28;20051;-75
2022/04/21 01:13:04;;;;;;;13.15;9.23;;;7.00;99.90;;;;;;5040679;28;20457;-74
2022/04/21 01:15:29;;;;;;;15.77;10.50;;;7.40;99.90;;;;;;5058646;28;20040;-76
2022/04/21 01:17:55;;;;;;;17.08;10.45;;;6.90;99.90;;;;;;5054522;28;20517;-75
2022/04/21 01:20:25;;;;;;;15.35;10.60;;;6.90;99.90;;;;;;5021260;28;20045;-74
2022/04/21 01:22:52;;;;;;;20.52;12.25;;;6.80;99.90;;;;;;5037986;28;20561;-74
2022/04/21 01:25:18;;;;;;;16.48;10.50;;;6.80;99.90;;;;;;5038416;28;20060;-75
2022/04/21 01:27:45;;;;;;;16.95;10.10;;;6.70;99.90;;;;;;5039302;28;20045;-76
2022/04/21 01:30:11;;;;;;;15.82;10.40;;;6.70;99.90;;;;;;5056330;28;20060;-76
2022/04/21 01:32:40;;;;;;;16.88;10.40;;;6.70;99.90;;;;;;5057947;28;20202;-74
2022/04/21 01:35:07;;;;;;;19.48;12.07;;;6.70;99.90;;;;;;5040138;28;20474;-76
2022/04/21 01:43:02;;;;;;;19.38;11.07;;;6.50;99.90;;;;;;5045632;28;20124;-74
2022/04/21 01:45:28;;;;;;;16.83;11.85;;;6.50;99.90;;;;;;5039860;28;20050;-74
2022/04/21 01:47:56;;;;;;;20.33;12.07;;;6.50;99.90;;;;;;5037471;28;21520;-75
2022/04/21 01:50:22;;;;;;;18.45;12.27;;;6.50;99.90;;;;;;5037796;28;20049;-74
2022/04/21 01:52:48;;;;;;;19.08;12.30;;;6.40;99.90;;;;;;5037513;28;20180;-74
2022/04/21 01:55:14;;;;;;;18.00;12.70;;;6.40;99.90;;;;;;5020459;28;20100;-74
2022/04/21 01:57:39;;;;;;;21.13;12.98;;;6.40;99.90;;;;;;5019477;28;20075;-76
2022/04/21 02:00:06;;;;;;;18.90;12.70;;;6.40;99.90;;;;;;5000850;28;20050;-75
2022/04/21 02:02:32;;;;;;;17.10;12.57;;;6.40;99.90;;;;;;5014608;28;20042;-74
2022/04/21 02:04:59;;;;;;;20.50;13.23;;;6.40;99.90;;;;;;5000621;28;20050;-74
2022/04/21 02:07:25;;;;;;;20.85;13.05;;;6.30;99.90;;;;;;5017210;28;20042;-75
2022/04/21 02:09:51;;;;;;;17.10;13.27;;;6.30;99.90;;;;;;5053978;28;20068;-74
2022/04/21 02:12:18;;;;;;;19.20;13.32;;;6.30;99.90;;;;;;5056924;28;20037;-75
2022/04/21 02:14:43;;;;;;;18.98;12.40;;;6.30;99.90;;;;;;5057347;28;20040;-75
2022/04/21 02:17:09;;;;;;;16.80;11.95;;;6.30;99.90;;;;;;5057349;28;20107;-75
2022/04/21 02:19:34;;;;;;;19.48;13.07;;;6.30;99.90;;;;;;5041191;28;20139;-74
2022/04/21 02:22:00;;;;;;;20.65;12.82;;;6.30;99.90;;;;;;5037209;28;20535;-75
2022/04/21 02:24:25;;;;;;;16.42;12.15;;;6.30;99.90;;;;;;5019905;28;20532;-74
2022/04/21 02:26:51;;;;;;;16.23;11.82;;;6.30;99.90;;;;;;5037218;28;20053;-75
2022/04/21 02:29:16;;;;;;;19.33;12.82;;;6.40;99.90;;;;;;5049576;28;20477;-73
2022/04/21 02:31:42;;;;;;;19.33;13.02;;;6.20;99.90;;;;;;5057007;28;20049;-75
2022/04/21 02:34:07;;;;;;;19.15;13.20;;;6.20;99.90;;;;;;5057123;28;20362;-74
2022/04/21 02:36:33;;;;;;;23.20;12.90;;;6.20;99.90;;;;;;5056867;28;20045;-74
2022/04/21 02:38:59;;;;;;;18.17;12.23;;;6.20;99.90;;;;;;5028723;28;20049;-75
2022/04/21 02:41:26;;;;;;;18.95;12.93;;;6.20;99.90;;;;;;5036555;28;20041;-75
2022/04/21 02:43:51;;;;;;;19.52;13.02;;;6.20;99.90;;;;;;5016475;28;20059;-74
2022/04/21 02:46:17;;;;;;;19.98;12.82;;;6.20;99.90;;;;;;5018141;28;20061;-74
2022/04/21 02:48:43;;;;;;;19.70;12.65;;;6.20;99.90;;;;;;5026440;28;20048;-75
2022/04/21 02:51:09;;;;;;;19.75;13.07;;;6.10;99.90;;;;;;5038642;28;20041;-74
2022/04/21 02:59:04;;;;;;;21.50;12.50;;;6.20;99.90;;;;;;5046893;28;20099;-75
2022/04/21 03:01:29;;;;;;;20.02;12.70;;;6.30;99.90;;;;;;5056336;28;20044;-74
2022/04/21 03:03:55;;;;;;;17.77;11.52;;;6.30;99.90;;;;;;5055908;28;20037;-74
2022/04/21 03:06:20;;;;;;;19.83;12.02;;;6.20;99.90;;;;;;5056062;28;20068;-75
2022/04/21 03:08:46;;;;;;;20.55;12.35;;;6.20;99.90;;;;;;5028048;28;20080;-75
2022/04/21 03:11:12;;;;;;;15.60;11.10;;;6.20;99.90;;;;;;5036079;28;20049;-76
2022/04/21 03:13:38;;;;;;;18.30;11.43;;;6.20;99.90;;;;;;5036156;28;20045;-76
2022/04/21 03:16:03;;;;;;;17.45;12.05;;;6.10;99.90;;;;;;5035936;28;20144;-74
2022/04/21 03:18:29;;;;;;;16.13;11.10;;;6.10;99.90;;;;;;5026366;28;20123;-76
2022/04/21 03:26:23;;;;;;;20.48;12.65;;;6.00;99.90;;;;;;5055584;28;20144;-75
2022/04/21 03:28:48;;;;;;;20.20;12.65;;;6.00;99.90;;;;;;5045011;28;20073;-75
2022/04/21 03:31:14;;;;;;;18.15;11.88;;;5.90;99.90;;;;;;5035746;28;20056;-74
2022/04/21 03:33:39;;;;;;;20.67;10.95;;;5.90;99.90;;;;;;5018296;28;20037;-73
2022/04/21 03:36:05;;;;;;;16.10;11.98;;;5.90;99.90;;;;;;5035643;28;20095;-75
2022/04/21 03:38:31;;;;;;;17.95;12.35;;;6.40;99.90;;;;;;5043624;28;20049;-75
2022/04/21 03:40:56;;;;;;;17.50;11.85;;;5.90;99.90;;;;;;5055666;28;20123;-74
2022/04/21 03:43:22;;;;;;;17.25;11.50;;;5.80;99.90;;;;;;5037505;28;20478;-75
2022/04/21 03:45:48;;;;;;;18.23;11.75;;;5.80;99.90;;;;;;5055563;28;20041;-75
2022/04/21 03:48:13;;;;;;;19.30;11.68;;;5.80;99.90;;;;;;5051160;28;20037;-74
2022/04/21 03:50:39;;;;;;;16.80;11.45;;;5.70;99.90;;;;;;5036731;28;20060;-74
2022/04/21 03:53:05;;;;;;;18.13;11.45;;;5.70;99.90;;;;;;5055517;28;20056;-75
2022/04/21 03:55:31;;;;;;;21.08;11.18;;;5.70;99.90;;;;;;5055308;28;20059;-75
2022/04/21 03:57:57;;;;;;;18.50;10.63;;;5.60;99.90;;;;;;5057124;28;20033;-73
2022/04/21 04:00:25;;;;;;;20.85;11.90;;;5.60;99.90;;;;;;5042233;28;20037;-75
2022/04/21 04:02:51;;;;;;;24.58;12.27;;;5.50;99.90;;;;;;5038443;28;20045;-74
2022/04/21 04:05:16;;;;;;;19.27;11.35;;;5.50;99.90;;;;;;5036113;28;20029;-73
2022/04/21 04:13:10;;;;;;;19.05;11.88;;;5.40;99.90;;;;;;5034970;28;20049;-74
2022/04/21 04:15:36;;;;;;;18.63;12.15;;;5.40;99.90;;;;;;5035402;28;20468;-73
2022/04/21 04:18:01;;;;;;;19.30;11.93;;;5.40;99.90;;;;;;5017292;28;20073;-73
2022/04/21 04:20:27;;;;;;;21.00;11.95;;;5.40;99.90;;;;;;5035364;28;20037;-74
2022/04/21 04:22:52;;;;;;;16.20;11.85;;;5.50;99.90;;;;;;5034912;28;20099;-73
2022/04/21 04:25:18;;;;;;;17.60;12.05;;;5.50;99.90;;;;;;5053936;28;20053;-76
2022/04/21 04:27:44;;;;;;;14.50;11.10;;;5.50;99.90;;;;;;5054288;28;20083;-75
2022/04/21 04:30:10;;;;;;;15.85;11.27;;;5.50;99.90;;;;;;5036834;28;20060;-75
2022/04/21 04:32:36;;;;;;;16.70;10.95;;;5.50;99.90;;;;;;5051403;28;20049;-74
2022/04/21 04:35:02;;;;;;;16.95;11.27;;;5.60;99.90;;;;;;5036969;28;20373;-73
2022/04/21 04:37:27;;;;;;;16.65;11.38;;;5.60;99.90;;;;;;5034722;28;20055;-74
2022/04/21 04:39:55;;;;;;;17.70;10.90;;;5.70;99.90;;;;;;5034862;28;20038;-74
2022/04/21 04:42:22;;;;;;;15.30;11.05;;;5.70;99.90;;;;;;5034270;28;20164;-73
2022/04/21 04:46:34;;;;;;;16.40;10.65;;;5.70;99.90;;;;;;5032101;28;20069;-75
2022/04/21 04:47:40;;;;;;;14.30;10.40;;;5.70;99.90;;;;;;5054175;28;20142;-74
2022/04/21 04:50:06;;;;;;;15.82;11.52;;;5.70;99.90;;;;;;5054924;28;20049;-75
2022/04/21 04:52:32;;;;;;;14.50;10.13;;;5.80;99.90;;;;;;5054508;28;20037;-76
2022/04/21 04:54:58;;;;;;;16.30;10.55;;;5.80;99.90;;;;;;5020939;28;20068;-73
2022/04/21 04:57:24;;;;;;;15.68;10.77;;;5.80;99.90;;;;;;5034845;28;20123;-74
2022/04/21 04:59:49;;;;;;;14.43;10.52;;;5.80;99.90;;;;;;5017238;28;20366;-72
2022/04/21 05:02:17;;;;;;;15.50;11.00;;;5.90;99.90;;;;;;5034493;28;20128;-74
2022/04/21 05:04:43;;;;;;;14.15;10.32;;;5.90;99.90;;;;;;5030309;28;20037;-75
2022/04/21 05:07:08;;;;;;;14.38;10.68;;;6.00;99.90;;;;;;5037018;28;20049;-75
2022/04/21 05:09:34;;;;;;;14.70;10.43;;;6.10;99.90;;;;;;5054324;28;20056;-73
2022/04/21 05:11:59;;;;;;;14.75;10.55;;;6.10;99.90;;;;;;5054258;28;20037;-74
2022/04/21 05:14:25;;;;;;;15.55;10.18;;;6.20;99.90;;;;;;5053551;28;20041;-74
2022/04/21 05:16:51;;;;;;;14.85;9.88;;;6.30;99.90;;;;;;5036890;28;20365;-74
2022/04/21 05:19:19;;;;;;;15.85;10.85;;;6.30;99.90;;;;;;5036669;28;20045;-73
2022/04/21 05:21:47;;;;;;;14.90;9.80;;;6.40;99.90;;;;;;5036833;28;20064;-75
2022/04/21 05:24:13;;;;;;;13.93;10.75;;;6.50;99.90;;;;;;5027245;28;20143;-75
2022/04/21 05:26:40;;;;;;;16.27;10.52;;;6.60;99.90;;;;;;5034156;28;20049;-74
2022/04/21 05:32:00;;;;;;;15.05;9.45;;;6.80;99.90;;;;;;5016965;28;20064;-74
2022/04/21 05:34:28;;;;;;;14.82;10.32;;;6.90;99.90;;;;;;5044183;28;20090;-75
2022/04/21 05:36:54;;;;;;;17.40;10.48;;;6.90;99.90;;;;;;5050003;28;20061;-76
2022/04/21 05:39:21;;;;;;;12.73;9.88;;;7.00;99.90;;;;;;5037916;28;20050;-74
2022/04/21 05:41:47;;;;;;;13.68;9.43;;;7.20;99.90;;;;;;5019729;28;20057;-73
2022/04/21 05:44:13;;;;;;;16.45;9.30;;;7.60;99.90;;;;;;5045425;28;20091;-74
2022/04/21 05:46:39;;;;;;;12.38;9.18;;;7.90;99.90;;;;;;5045284;28;20041;-75
2022/04/21 05:49:05;;;;;;;14.13;9.65;;;8.30;99.90;;;;;;5037614;28;20103;-75
2022/04/21 05:51:31;;;;;;;12.70;9.57;;;9.20;99.90;;;;;;5037226;28;20100;-75
2022/04/21 05:54:04;;;;;;;14.45;8.73;;;10.50;99.90;;;;;;5042949;28;20064;-76
2022/04/21 05:56:30;;;;;;;12.82;8.63;;;11.70;99.90;;;;;;5057918;28;20132;-75
2022/04/21 05:58:56;;;;;;;14.68;8.18;;;12.80;99.90;;;;;;5054507;28;20136;-74
2022/04/21 06:01:21;;;;;;;9.98;7.45;;;13.80;99.90;;;;;;5057760;28;20049;-74
2022/04/21 06:03:47;;;;;;;10.95;7.88;;;14.70;99.90;;;;;;5052845;28;20370;-75
2022/04/21 06:06:12;;;;;;;11.00;7.50;;;14.80;99.90;;;;;;5037248;28;20347;-77
2022/04/21 06:08:39;;;;;;;13.20;6.93;;;15.40;99.90;;;;;;5037149;28;20037;-75
2022/04/21 06:11:04;;;;;;;12.05;6.90;;;15.80;99.90;;;;;;5036919;28;20140;-74
2022/04/21 06:13:31;;;;;;;16.13;7.63;;;16.30;99.90;;;;;;5021340;28;20386;-73
2022/04/21 06:15:57;;;;;;;9.68;6.65;;;16.80;99.90;;;;;;5039531;28;20048;-75
2022/04/21 06:18:24;;;;;;;9.15;6.18;;;16.90;99.90;;;;;;5056913;28;20094;-75
2022/04/21 06:20:50;;;;;;;9.52;6.55;;;17.10;98.30;;;;;;5057438;28;20079;-76
2022/04/21 06:23:16;;;;;;;10.48;6.22;;;17.50;98.30;;;;;;5043471;28;20056;-76
2022/04/21 06:25:42;;;;;;;9.23;6.00;;;17.50;97.00;;;;;;5036939;28;20045;-75
2022/04/21 06:28:11;;;;;;;10.23;6.35;;;17.90;95.40;;;;;;5037157;28;20199;-75
2022/04/21 06:30:38;;;;;;;10.93;5.97;;;17.80;93.80;;;;;;5036871;28;20499;-74
2022/04/21 06:33:04;;;;;;;9.32;5.70;;;17.90;94.80;;;;;;5047707;28;20037;-74
2022/04/21 06:35:29;;;;;;;12.80;5.78;;;18.00;91.80;;;;;;5056706;28;20370;-75
2022/04/21 06:37:55;;;;;;;10.43;5.57;;;18.20;90.80;;;;;;5056911;28;20041;-75
2022/04/21 06:40:22;;;;;;;12.35;5.57;;;18.40;92.40;;;;;;5056822;28;20107;-77
2022/04/21 06:42:47;;;;;;;10.98;4.90;;;18.90;90.50;;;;;;5029854;28;20500;-75
2022/04/21 06:48:04;;;;;;;8.27;4.43;;;18.90;88.80;;;;;;5035662;28;20057;-77
2022/04/21 06:50:34;;;;;;;7.75;4.40;;;19.10;86.10;;;;;;5036529;28;20111;-77
2022/04/21 06:53:02;;;;;;;6.68;4.38;;;19.00;83.00;;;;;;5028578;28;20098;-76
2022/04/21 06:55:27;;;;;;;6.30;4.03;;;18.30;84.00;;;;;;5038520;28;20044;-76
2022/04/21 06:57:53;;;;;;;7.28;4.05;;;17.10;82.40;;;;;;5056335;28;20538;-76
2022/04/21 07:00:19;;;;;;;6.38;3.90;;;15.90;85.90;;;;;;5038873;28;20040;-75
2022/04/21 07:02:45;;;;;;;6.32;3.90;;;15.00;89.50;;;;;;5052947;28;20416;-75
2022/04/21 07:05:13;;;;;;;8.27;4.07;;;14.50;90.60;;;;;;5056291;28;20106;-74
2022/04/21 07:07:40;;;;;;;6.65;3.92;;;13.80;92.00;;;;;;5038477;28;20096;-75
2022/04/21 07:10:06;;;;;;;7.85;3.83;;;13.20;93.90;;;;;;5056282;28;20106;-75
2022/04/21 07:12:33;;;;;;;5.50;3.40;;;13.00;94.70;;;;;;5049722;28;20437;-75
2022/04/21 07:15:05;;;;;;;8.25;3.90;;;12.90;95.30;;;;;;5035722;28;20141;-74
2022/04/21 07:17:31;;;;;;;6.45;3.78;;;12.90;96.70;;;;;;5018414;28;20041;-74
2022/04/21 07:19:58;;;;;;;5.10;3.50;;;12.70;96.60;;;;;;5036123;28;20094;-74
2022/04/21 07:22:27;;;;;;;5.43;3.40;;;12.70;96.50;;;;;;5040131;28;20346;-75
2022/04/21 07:24:53;;;;;;;7.28;3.30;;;12.80;96.70;;;;;;5038345;28;20049;-75
2022/04/21 07:27:19;;;;;;;7.40;3.67;;;12.70;96.60;;;;;;5055886;28;20436;-74
2022/04/21 07:29:44;;;;;;;5.47;3.30;;;12.70;97.60;;;;;;5055570;28;20076;-74
2022/04/21 07:32:10;;;;;;;5.85;3.17;;;12.80;97.50;;;;;;5052886;28;20059;-75
2022/04/21 07:34:37;;;;;;;6.25;3.30;;;12.80;97.10;;;;;;5018832;28;20373;-77
2022/04/21 07:37:03;;;;;;;5.40;3.42;;;12.80;96.90;;;;;;5018598;28;20063;-73
2022/04/21 07:39:29;;;;;;;7.38;3.60;;;12.70;97.00;;;;;;5032348;28;20085;-75
2022/04/21 07:41:57;;;;;;;7.10;3.40;;;12.70;97.70;;;;;;5035226;28;20147;-78
2022/04/21 07:44:23;;;;;;;5.43;3.28;;;12.90;97.20;;;;;;5016018;28;20366;-75
2022/04/21 07:46:48;;;;;;;6.47;3.17;;;13.00;98.10;;;;;;5015782;28;20068;-76
2022/04/21 07:54:43;;;;;;;4.97;3.47;;;13.20;96.80;;;;;;5037589;28;20057;-75
2022/04/21 07:57:09;;;;;;;7.18;3.33;;;13.20;96.40;;;;;;5055138;28;20041;-74
2022/04/21 07:59:35;;;;;;;4.20;3.13;;;13.30;96.60;;;;;;5054928;28;20041;-75
2022/04/21 08:02:03;;;;;;;4.72;3.30;;;13.10;96.40;;;;;;5036895;28;20056;-76
2022/04/21 08:04:29;;;;;;;4.93;3.08;;;13.00;97.00;;;;;;5032603;28;20099;-74
2022/04/21 08:06:54;;;;;;;6.25;3.40;;;13.10;97.20;;;;;;5035015;28;20045;-74
2022/04/21 08:09:20;;;;;;;5.68;3.33;;;13.60;97.30;;;;;;5035099;28;20205;-74
2022/04/21 08:11:46;;;;;;;8.18;3.30;;;14.70;95.10;;;;;;5035526;28;20466;-75
2022/04/21 08:14:16;;;;;;;6.43;3.28;;;15.80;94.90;;;;;;5053272;28;20094;-74
2022/04/21 08:16:42;;;;;;;5.03;3.35;;;16.30;92.10;;;;;;5055167;28;20051;-75
2022/04/21 08:19:08;;;;;;;5.28;3.33;;;17.00;91.70;;;;;;5055133;28;20095;-74
2022/04/21 08:21:34;;;;;;;6.68;3.30;;;17.50;88.80;;;;;;5054797;28;20084;-74
2022/04/21 08:32:33;;;;;;;7.63;3.40;;;17.70;88.30;;;;;;5034745;28;20053;-75
2022/04/21 08:34:58;;;;;;;9.23;3.72;;;18.50;82.20;;;;;;5055047;28;20349;-75
2022/04/21 08:37:24;;;;;;;6.68;3.83;;;18.10;81.60;;;;;;5054929;28;20120;-74
2022/04/21 08:39:49;;;;;;;5.50;3.33;;;17.90;81.70;;;;;;5037238;28;20350;-74
2022/04/21 08:42:15;;;;;;;7.10;3.35;;;17.90;83.10;;;;;;5034356;28;20063;-75
2022/04/21 08:44:44;;;;;;;5.50;3.05;;;18.30;81.40;;;;;;5031412;28;20053;-75
2022/04/21 08:47:12;;;;;;;6.38;3.30;;;18.20;80.90;;;;;;5014544;28;20119;-76
2022/04/21 08:49:39;;;;;;;7.00;3.15;;;18.40;82.20;;;;;;5031129;28;20128;-76
2022/04/21 08:52:06;;;;;;;6.10;3.28;;;18.40;82.40;;;;;;5054619;28;20056;-75
2022/04/21 08:54:32;;;;;;;8.80;3.30;;;18.20;82.60;;;;;;5019364;28;20053;-75
2022/04/21 08:56:59;;;;;;;5.55;3.08;;;18.10;82.60;;;;;;5054744;28;20045;-76
2022/04/21 08:59:25;;;;;;;9.27;3.30;;;17.80;82.10;;;;;;5042326;28;20450;-73
2022/04/21 09:01:50;;;;;;;8.73;2.97;;;17.60;83.30;;;;;;5034797;28;20053;-75
2022/04/21 09:04:16;;;;;;;7.43;3.33;;;17.40;82.60;;;;;;5017648;28;20128;-74
2022/04/21 09:06:42;;;;;;;4.55;3.10;;;17.00;84.80;;;;;;5016783;28;20472;-74
2022/04/21 09:09:17;;;;;;;6.85;2.95;;;16.80;84.60;;;;;;5043205;28;20120;-76
2022/04/21 09:11:43;;;;;;;6.50;3.20;;;16.50;87.50;;;;;;5056511;28;20107;-75
2022/04/21 09:14:15;;;;;;;5.50;3.15;;;16.30;88.20;;;;;;5058073;28;20045;-74
2022/04/21 09:16:41;;;;;;;7.63;3.17;;;15.90;86.50;;;;;;5058171;28;20040;-74
2022/04/21 09:19:06;;;;;;;4.50;2.95;;;15.60;88.20;;;;;;5049304;28;20103;-75
2022/04/21 09:21:37;;;;;;;5.72;3.05;;;15.60;90.00;;;;;;5038273;28;20061;-74
2022/04/21 09:24:18;;;;;;;6.25;3.28;;;15.80;89.50;;;;;;5020436;28;20042;-76
2022/04/21 09:26:47;;;;;;;5.22;3.33;;;16.10;90.10;;;;;;5037726;28;20124;-74
2022/04/21 09:29:24;;;;;;;7.50;3.60;;;16.40;89.20;;;;;;5047051;28;20041;-74
2022/04/21 09:32:17;;;;;;;4.75;2.40;;;16.50;87.80;;;;;;5058129;28;20048;-75
2022/04/21 09:34:49;;;;;;;5.15;3.45;;;17.10;89.30;;;;;;5037588;28;20060;-73
2022/04/21 09:37:19;;;;;;;5.53;3.47;;;17.50;85.60;;;;;;5057809;28;20096;-75
2022/04/21 09:39:52;;;;;;;5.57;3.28;;;17.80;84.90;;;;;;5043910;28;20052;-74
2022/04/21 09:42:25;;;;;;;6.13;3.65;;;17.90;84.20;;;;;;5037756;28;20132;-75
2022/04/21 09:47:35;;;;;;;6.80;3.40;;;17.20;88.60;;;;;;5037501;28;20053;-76
2022/04/21 09:50:13;;;;;;;5.93;3.75;;;16.70;89.40;;;;;;5052711;28;20048;-74
2022/04/21 09:52:46;;;;;;;5.20;3.45;;;16.40;90.00;;;;;;5018085;28;20038;-74
2022/04/21 09:55:19;;;;;;;;;;;16.20;90.10;;;;;;5008156;28;20434;-76
2022/04/21 09:57:45;;;;;;;6.32;3.72;;;16.00;92.00;;;;;;5037924;28;19931;-74
2022/04/21 10:00:11;;;;;;;5.93;3.83;;;15.90;90.80;;;;;;5053557;28;20120;-75
2022/04/21 10:02:38;;;;;;;5.75;4.00;;;16.00;91.30;;;;;;5057728;28;20049;-76
2022/04/21 10:05:05;;;;;;;9.20;4.00;;;16.10;91.50;;;;;;5039563;28;20110;-76
2022/04/21 10:07:31;;;;;;;6.60;3.50;;;15.90;90.90;;;;;;5057483;28;20056;-75
2022/04/21 10:09:58;;;;;;;5.40;3.78;;;15.90;90.80;;;;;;5008496;28;20057;-74
2022/04/21 10:12:24;;;;;;;5.20;3.45;;;15.80;91.00;;;;;;5019873;28;20423;-75
2022/04/21 10:14:51;;;;;;;6.60;3.60;;;15.90;91.20;;;;;;5019037;28;20046;-74
2022/04/21 10:17:17;;;;;;;5.82;3.47;;;16.00;90.70;;;;;;5002538;28;20062;-74
2022/04/21 10:19:43;;;;;;;6.43;3.40;;;16.00;90.60;;;;;;5031130;28;20133;-75
2022/04/21 10:22:14;;;;;;;6.40;3.10;;;15.90;90.80;;;;;;5055955;28;20134;-76
2022/04/21 10:24:41;;;;;;;5.25;3.28;;;16.00;90.60;;;;;;5056597;28;20052;-74
2022/04/21 10:27:40;;;;;;;5.65;3.10;;;15.90;90.70;;;;;;5056528;28;20124;-75
2022/04/21 10:30:30;;;;;;;4.55;3.00;;;16.00;90.00;;;;;;5024062;28;20045;-76
2022/04/21 10:32:57;;;;;;;4.55;2.85;;;16.10;89.40;;;;;;5019187;28;20053;-74
2022/04/21 10:35:29;;;;;;;5.28;2.90;;;16.30;88.90;;;;;;5037306;28;20187;-75
2022/04/21 10:38:12;;;;;;;5.55;2.90;;;16.40;88.90;;;;;;5037108;28;20414;-75
2022/04/21 10:41:33;;;;;;;5.82;3.00;;;16.50;87.10;;;;;;5055696;28;20036;-75
2022/04/21 10:44:03;;;;;;;6.60;3.08;;;16.40;87.00;;;;;;4975472;28;20094;-75
2022/04/21 10:46:30;;;;;;;6.00;3.03;;;16.50;88.30;;;;;;5053345;28;20063;-75
2022/04/21 10:48:58;;;;;;;5.53;3.28;;;16.70;85.40;;;;;;5017665;28;20042;-75
2022/04/21 10:57:28;;;;;;;6.72;2.90;;;16.50;87.70;;;;;;5035652;28;20394;-75
2022/04/21 10:59:56;;;;;;;4.13;3.00;;;16.80;88.20;;;;;;5048485;28;20145;-74
2022/04/21 11:02:43;;;;;;;6.70;3.00;;;17.00;85.40;;;;;;5056815;28;20044;-74
2022/04/21 11:05:27;;;;;;;6.57;2.80;;;16.90;85.70;;;;;;5056662;28;20049;-76
2022/04/21 11:07:55;;;;;;;4.15;2.67;;;16.90;84.70;;;;;;5056257;28;20124;-75
2022/04/21 11:10:36;;;;;;;6.93;2.80;;;17.00;84.70;;;;;;5022509;28;20041;-77
2022/04/21 11:13:03;;;;;;;4.80;2.95;;;17.20;84.00;;;;;;5036130;28;20037;-74
2022/04/21 11:15:36;;;;;;;5.20;2.90;;;17.20;83.80;;;;;;5018984;28;20461;-75
2022/04/21 11:18:08;;;;;;;7.63;3.15;;;17.20;83.10;;;;;;5036231;28;20078;-75
2022/04/21 11:20:33;;;;;;;4.32;2.55;;;17.40;82.30;;;;;;5053327;28;20067;-76
2022/04/21 11:22:59;;;;;;;8.80;3.33;;;17.50;82.20;;;;;;5038050;28;20136;-75
2022/04/21 11:25:25;;;;;;;4.07;2.60;;;17.70;83.20;;;;;;5056146;28;20346;-75
2022/04/21 11:27:51;;;;;;;4.45;2.47;;;17.80;83.30;;;;;;5056122;28;20048;-75
2022/04/21 11:30:18;;;;;;;4.97;3.10;;;18.10;84.40;;;;;;5040645;28;20057;-76
2022/04/21 11:32:51;;;;;;;6.25;3.10;;;18.10;81.00;;;;;;5018416;28;20060;-75
2022/04/21 11:35:18;;;;;;;5.22;3.17;;;18.10;79.30;;;;;;5035265;28;20045;-74
2022/04/21 11:37:50;;;;;;;9.32;3.28;;;18.00;80.10;;;;;;5035520;28;20136;-76
2022/04/21 11:40:31;;;;;;;5.05;2.80;;;18.00;80.00;;;;;;5049679;28;20052;-74
2022/04/21 11:43:03;;;;;;;4.60;2.90;;;18.10;79.60;;;;;;4999724;28;20057;-75
2022/04/21 11:45:34;;;;;;;9.18;3.40;;;17.90;78.10;;;;;;5015742;28;20054;-75
2022/04/21 11:48:00;;;;;;;6.07;2.95;;;17.80;79.50;;;;;;5015284;28;20446;-75
2022/04/21 11:50:28;;;;;;;6.65;3.58;;;17.90;79.10;;;;;;5015158;28;20359;-75
2022/04/21 11:52:54;;;;;;;5.15;3.20;;;17.80;79.40;;;;;;5054077;28;20060;-75
2022/04/21 11:55:22;;;;;;;6.25;2.63;;;17.90;80.00;;;;;;5037882;28;20139;-76
2022/04/21 11:57:49;;;;;;;4.22;2.88;;;17.90;79.80;;;;;;5037622;28;20052;-74
2022/04/21 12:00:17;;;;;;;5.72;2.80;;;17.80;79.60;;;;;;5054687;28;20117;-75
2022/04/21 12:08:12;;;;;;;3.88;3.15;;;17.90;77.90;;;;;;5035347;28;20049;-74
2022/04/21 12:10:39;;;;;;;6.28;3.13;;;17.40;79.00;;;;;;5017962;28;20048;-76
2022/04/21 12:13:04;;;;;;;5.25;3.10;;;17.30;80.60;;;;;;5054814;28;20053;-75
2022/04/21 12:15:31;;;;;;;4.50;2.70;;;17.30;77.50;;;;;;5037998;28;20377;-74
2022/04/21 12:18:01;;;;;;;4.78;2.83;;;17.10;77.10;;;;;;5054552;28;20513;-75
2022/04/21 12:20:28;;;;;;;6.63;3.33;;;17.10;78.90;;;;;;5054884;28;20045;-76
2022/04/21 12:22:56;;;;;;;6.78;3.33;;;17.00;81.80;;;;;;5036172;28;20056;-74
2022/04/21 12:25:32;;;;;;;6.43;3.20;;;17.00;81.60;;;;;;5034257;28;20399;-75
2022/04/21 12:28:05;;;;;;;6.20;3.08;;;17.20;81.70;;;;;;5017043;28;20049;-76
2022/04/21 12:30:31;;;;;;;7.00;3.45;;;17.40;80.70;;;;;;5016909;28;20492;-75
2022/04/21 12:32:57;;;;;;;5.00;3.20;;;17.50;80.10;;;;;;5034877;28;20128;-75
2022/04/21 12:35:45;;;;;;;4.80;3.20;;;17.60;80.80;;;;;;5037312;28;20040;-75
2022/04/21 12:41:01;;;;;;;13.75;3.40;;;17.80;82.60;;;;;;5034363;28;20076;-75
2022/04/21 12:43:30;;;;;;;7.82;3.33;;;18.10;80.20;;;;;;5034172;28;20060;-75
2022/04/21 12:46:00;;;;;;;8.30;3.10;;;18.20;80.10;;;;;;5034849;28;20045;-75
2022/04/21 12:48:27;;;;;;;5.70;3.20;;;18.20;79.50;;;;;;5038407;28;20441;-74
2022/04/21 12:50:55;;;;;;;5.78;3.45;;;18.30;79.40;;;;;;5021980;28;20123;-76
2022/04/21 12:53:31;;;;;;;5.15;3.65;;;18.20;79.60;;;;;;5041113;28;20048;-76
2022/04/21 12:56:09;;;;;;;4.70;3.60;;;18.20;81.10;;;;;;5058585;28;20063;-75
2022/04/21 12:58:35;;;;;;;5.72;3.90;;;18.00;80.20;;;;;;5058664;28;20041;-76
2022/04/21 13:01:02;;;;;;;6.45;4.15;;;18.00;81.10;;;;;;5056495;28;20378;-74
2022/04/21 13:03:28;;;;;;;4.97;3.47;;;18.00;81.50;;;;;;5021931;28;20049;-74
2022/04/21 13:05:56;;;;;;;4.72;3.17;;;17.90;82.70;;;;;;5020741;28;20354;-73
2022/04/21 13:08:26;;;;;;;6.38;3.67;;;18.00;82.80;;;;;;5038599;28;20056;-74
2022/04/21 13:10:53;;;;;;;7.22;3.55;;;18.10;82.50;;;;;;5021675;28;20080;-74
2022/04/21 13:13:19;;;;;;;6.18;3.22;;;18.20;80.90;;;;;;5058439;28;20061;-74
2022/04/21 13:15:45;;;;;;;5.65;3.60;;;18.20;82.00;;;;;;5040705;28;20295;-76
2022/04/21 13:18:12;;;;;;;8.32;3.42;;;18.20;80.10;;;;;;5058051;28;20083;-74
2022/04/21 13:23:24;;;;;;;5.65;3.33;;;18.10;80.70;;;;;;5038403;28;20092;-74
2022/04/21 13:25:49;;;;;;;5.75;3.67;;;18.10;79.30;;;;;;5038360;28;20057;-73
2022/04/21 13:28:15;;;;;;;4.18;3.20;;;17.90;80.20;;;;;;5038036;28;20504;-73
2022/04/21 13:30:40;;;;;;;6.38;4.30;;;18.00;81.40;;;;;;5049397;28;20053;-75
2022/04/21 13:33:21;;;;;;;9.07;4.70;;;18.00;80.30;;;;;;5040550;28;20055;-74
2022/04/21 13:35:47;;;;;;;10.38;4.50;;;18.00;80.30;;;;;;5057233;28;20131;-74
2022/04/21 13:38:16;;;;;;;7.03;4.15;;;17.90;80.40;;;;;;5057337;28;20431;-74
2022/04/21 13:40:42;;;;;;;9.48;3.90;;;18.10;81.80;;;;;;5027762;28;20433;-75
2022/04/21 13:43:08;;;;;;;7.32;4.47;;;18.00;80.30;;;;;;5037902;28;20080;-74
2022/04/21 13:45:38;;;;;;;5.97;4.30;;;18.00;80.80;;;;;;5037607;28;20061;-75
2022/04/21 13:48:05;;;;;;;7.15;4.18;;;18.10;81.30;;;;;;5037994;28;20057;-74